Somerset, Wisconsin
Current Conditions -  °F | °C
As of 3:55 PM on Tuesday 25 Nov 2014 (Local Time) from KRNH Reporting Station
Overcast Overcast  
Wind Chill: 14°   Ceiling: 3500
Heat Index: 22°   Visibility: 10mi
Dew Point: 14°   Wind: 6mph
Humidity: 72%   Direction: 190°S
Pressure: 30.04"   Gusts: NA
Location:  45.12°N, 92.67°W
Report Text: KRNH 252155Z AUTO 19005KT 10SM BKN035 OVC050 M06/M10 A3004 RMK AO2 T10571100
Loading
Personal Weather Stations






























Interactive Weather Map New forecast layout! Learn more

10-Day Weather Forecast

Advertisements
Track Severe Weather on mobile